createdAt,value
2022-10-28T00:01:46.028Z,13
2022-10-28T00:04:16.362Z,17
2022-10-28T00:06:46.907Z,13
2022-10-28T00:09:17.210Z,13
2022-10-28T00:11:47.569Z,14
2022-10-28T00:14:17.927Z,13
2022-10-28T00:16:48.308Z,13
2022-10-28T00:19:18.642Z,13
2022-10-28T00:21:48.978Z,13
2022-10-28T00:24:19.044Z,11
2022-10-28T00:26:49.506Z,13
2022-10-28T00:29:19.492Z,12
2022-10-28T00:31:49.848Z,12
2022-10-28T00:34:20.188Z,12
2022-10-28T00:36:50.625Z,11
2022-10-28T00:39:20.902Z,11
2022-10-28T00:41:50.927Z,10
2022-10-28T00:44:21.558Z,11
2022-10-28T00:46:51.902Z,10
2022-10-28T00:49:21.972Z,13
2022-10-28T00:51:51.979Z,12
2022-10-28T00:54:22.040Z,11
2022-10-28T00:56:52.402Z,14
2022-10-28T00:59:22.761Z,13
2022-10-28T01:01:52.981Z,12
2022-10-28T01:04:22.838Z,13
2022-10-28T01:06:53.475Z,16
2022-10-28T01:09:26.431Z,13
2022-10-28T01:11:54.228Z,13
2022-10-28T01:14:24.882Z,16
2022-10-28T01:16:54.831Z,13
2022-10-28T01:19:25.184Z,12
2022-10-28T01:21:55.622Z,14
2022-10-28T01:24:25.934Z,13
2022-10-28T01:26:56.029Z,13
2022-10-28T01:29:26.414Z,15
2022-10-28T01:31:56.784Z,13
2022-10-28T01:34:26.888Z,14
2022-10-28T01:36:57.262Z,14
2022-10-28T01:39:27.828Z,17
2022-10-28T01:41:57.938Z,17
2022-10-28T01:44:28.324Z,11
2022-10-28T01:46:58.689Z,13
2022-10-28T01:49:28.784Z,13
2022-10-28T01:51:58.835Z,14
2022-10-28T01:54:28.948Z,14
2022-10-28T01:56:59.333Z,15
2022-10-28T01:59:29.728Z,14
2022-10-28T02:02:00.250Z,10
2022-10-28T02:04:30.213Z,14
2022-10-28T02:07:00.605Z,12
2022-10-28T02:09:30.664Z,14
2022-10-28T02:12:01.092Z,13
2022-10-28T02:14:31.439Z,14
2022-10-28T02:17:01.612Z,15
2022-10-28T02:19:31.656Z,12
2022-10-28T02:22:02.218Z,14
2022-10-28T02:24:32.465Z,19
2022-10-28T02:27:02.517Z,14
2022-10-28T02:29:32.931Z,13
2022-10-28T02:32:03.046Z,15
2022-10-28T02:34:33.809Z,13
2022-10-28T02:37:03.786Z,15
2022-10-28T02:39:34.184Z,15
2022-10-28T02:42:04.594Z,16
2022-10-28T02:44:35.004Z,13
2022-10-28T02:47:05.394Z,12
2022-10-28T02:49:35.793Z,13
2022-10-28T02:52:05.919Z,15
2022-10-28T02:54:36.315Z,16
2022-10-28T02:57:06.717Z,14
2022-10-28T02:59:37.159Z,14
2022-10-28T03:02:07.650Z,15
2022-10-28T03:04:37.911Z,15
2022-10-28T03:07:08.028Z,13
2022-10-28T03:09:38.412Z,12
2022-10-28T03:12:08.830Z,13
2022-10-28T03:14:39.220Z,13
2022-10-28T03:17:09.605Z,13
2022-10-28T03:19:39.652Z,13
2022-10-28T03:22:10.070Z,13
2022-10-28T03:24:40.512Z,13
2022-10-28T03:27:10.867Z,14
2022-10-28T03:29:44.968Z,13
2022-10-28T03:32:11.849Z,16
2022-10-28T03:34:42.350Z,13
2022-10-28T03:37:13.119Z,17
2022-10-28T03:39:43.720Z,10
2022-10-28T03:42:14.121Z,11
2022-10-28T03:44:44.622Z,14
2022-10-28T03:47:14.904Z,14
2022-10-28T03:49:45.074Z,16
2022-10-28T03:52:15.450Z,12
2022-10-28T03:54:45.853Z,15
2022-10-28T03:57:15.852Z,14
2022-10-28T03:59:46.287Z,15
2022-10-28T04:02:16.545Z,13
2022-10-28T04:04:46.714Z,15
2022-10-28T04:07:17.158Z,13
2022-10-28T04:09:47.483Z,13
2022-10-28T04:12:17.601Z,14
2022-10-28T04:14:47.974Z,13
2022-10-28T04:17:18.323Z,13
2022-10-28T04:19:48.430Z,13
2022-10-28T04:22:18.466Z,13
2022-10-28T04:24:48.818Z,12
2022-10-28T04:27:19.197Z,12
2022-10-28T04:29:49.589Z,12
2022-10-28T04:32:19.675Z,14
2022-10-28T04:34:49.708Z,14
2022-10-28T04:37:20.751Z,13
2022-10-28T04:39:49.885Z,13
2022-10-28T04:42:20.267Z,10
2022-10-28T04:44:50.721Z,12
2022-10-28T04:47:21.016Z,13
2022-10-28T04:49:51.392Z,13
2022-10-28T04:52:21.421Z,12
2022-10-28T04:54:51.799Z,15
2022-10-28T04:57:21.900Z,15
2022-10-28T04:59:52.337Z,14
2022-10-28T05:02:22.851Z,14
2022-10-28T05:04:53.041Z,13
2022-10-28T05:07:23.709Z,13
2022-10-28T05:09:53.850Z,13
2022-10-28T05:12:24.278Z,10
2022-10-28T05:14:54.389Z,12
2022-10-28T05:17:24.746Z,14
2022-10-28T05:19:54.838Z,15
2022-10-28T05:22:24.931Z,14
2022-10-28T05:24:55.342Z,14
2022-10-28T05:27:25.746Z,15
2022-10-28T05:29:55.886Z,13
2022-10-28T05:32:26.370Z,14
2022-10-28T05:34:56.720Z,13
2022-10-28T05:37:27.109Z,11
2022-10-28T05:39:57.517Z,13
2022-10-28T05:42:27.939Z,16
2022-10-28T05:44:58.367Z,11
2022-10-28T05:47:28.527Z,14
2022-10-28T05:49:58.569Z,14
2022-10-28T05:52:29.124Z,18
2022-10-28T05:54:59.677Z,13
2022-10-28T05:57:30.116Z,14
2022-10-28T06:00:00.556Z,15
2022-10-28T06:02:31.165Z,13
2022-10-28T06:05:01.584Z,16
2022-10-28T06:07:31.991Z,13
2022-10-28T06:10:02.394Z,13
2022-10-28T06:12:31.121Z,12
2022-10-28T06:15:01.504Z,14
2022-10-28T06:17:31.827Z,15
2022-10-28T06:20:02.245Z,12
2022-10-28T06:22:32.668Z,13
2022-10-28T06:25:03.081Z,13
2022-10-28T06:27:36.092Z,13
2022-10-28T06:30:03.642Z,12
2022-10-28T06:32:33.714Z,12
2022-10-28T06:35:04.166Z,11
2022-10-28T06:37:34.624Z,12
2022-10-28T06:40:04.625Z,16
2022-10-28T06:42:35.042Z,13
2022-10-28T06:45:05.484Z,15
2022-10-28T06:47:41.277Z,14
2022-10-28T06:50:07.564Z,14
2022-10-28T06:52:38.045Z,15
2022-10-28T06:55:08.420Z,14
2022-10-28T06:57:38.839Z,14
2022-10-28T07:00:09.265Z,14
2022-10-28T07:02:42.811Z,12
2022-10-28T07:05:09.791Z,14
2022-10-28T07:07:40.203Z,13
2022-10-28T07:10:10.367Z,12
2022-10-28T07:12:40.691Z,13
2022-10-28T07:15:11.115Z,13
2022-10-28T07:17:41.255Z,13
2022-10-28T07:20:11.779Z,12
2022-10-28T07:22:42.103Z,12
2022-10-28T07:25:12.658Z,14
2022-10-28T07:27:42.950Z,14
2022-10-28T07:30:13.124Z,13
2022-10-28T07:32:43.506Z,13
2022-10-28T07:35:13.926Z,14
2022-10-28T07:37:44.356Z,15
2022-10-28T07:40:14.795Z,12
2022-10-28T07:42:45.197Z,15
2022-10-28T07:45:15.585Z,13
2022-10-28T07:47:45.973Z,14
2022-10-28T07:50:16.383Z,13
2022-10-28T07:52:46.766Z,11
2022-10-28T07:55:16.829Z,15
2022-10-28T07:57:47.212Z,13
2022-10-28T08:00:17.360Z,18
2022-10-28T08:02:47.708Z,10
2022-10-28T08:05:17.930Z,15
2022-10-28T08:07:48.199Z,14
2022-10-28T08:10:18.576Z,16
2022-10-28T08:12:48.607Z,16
2022-10-28T08:15:19.265Z,16
2022-10-28T08:17:49.625Z,14
2022-10-28T08:20:19.734Z,17
2022-10-28T08:22:50.134Z,14
2022-10-28T08:25:20.496Z,12
2022-10-28T08:27:51.395Z,13
2022-10-28T08:30:21.918Z,12
2022-10-28T08:32:52.899Z,12
2022-10-28T08:35:23.525Z,14
2022-10-28T08:37:54.140Z,15
2022-10-28T08:40:24.207Z,12
2022-10-28T08:42:55.014Z,12
2022-10-28T08:45:24.797Z,14
2022-10-28T08:47:55.347Z,13
2022-10-28T08:50:25.271Z,13
2022-10-28T08:52:56.420Z,13
2022-10-28T08:55:26.341Z,12
2022-10-28T08:57:57.251Z,12
2022-10-28T09:00:27.283Z,11
2022-10-28T09:02:57.504Z,13
2022-10-28T09:05:27.352Z,12
2022-10-28T09:07:57.653Z,9
2022-10-28T09:10:28.022Z,11
2022-10-28T09:12:58.896Z,13
2022-10-28T09:15:29.320Z,13
2022-10-28T09:17:59.538Z,13
2022-10-28T09:20:30.525Z,13
2022-10-28T09:23:00.733Z,11
2022-10-28T09:25:31.095Z,13
2022-10-28T09:28:01.400Z,10
2022-10-28T09:30:31.760Z,10
2022-10-28T09:33:02.068Z,11
2022-10-28T09:35:32.936Z,11
2022-10-28T09:38:03.258Z,15
2022-10-28T09:40:33.638Z,11
2022-10-28T09:43:04.591Z,12
2022-10-28T09:45:35.350Z,12
2022-10-28T09:48:05.642Z,11
2022-10-28T09:50:36.521Z,12
2022-10-28T09:53:06.892Z,11
2022-10-28T09:55:37.679Z,11
2022-10-28T09:58:08.040Z,12
2022-10-28T10:00:38.817Z,11
2022-10-28T10:03:09.094Z,10
2022-10-28T10:05:39.428Z,10
2022-10-28T10:08:09.747Z,10
2022-10-28T10:10:40.549Z,12
2022-10-28T10:13:10.819Z,9
2022-10-28T10:15:41.108Z,10
2022-10-28T10:18:11.967Z,11
2022-10-28T10:20:42.228Z,10
2022-10-28T10:23:12.702Z,11
2022-10-28T10:25:43.343Z,11
2022-10-28T10:28:13.600Z,10
2022-10-28T10:30:43.881Z,12
2022-10-28T10:33:14.705Z,9
2022-10-28T10:35:44.979Z,8
2022-10-28T10:38:15.312Z,11
2022-10-28T10:40:45.496Z,9
2022-10-28T10:43:15.740Z,10
2022-10-28T10:45:46.073Z,9
2022-10-28T10:48:16.272Z,11
2022-10-28T10:50:46.768Z,20
2022-10-28T10:53:16.821Z,13
2022-10-28T10:55:47.195Z,34
2022-10-28T10:58:17.679Z,15
2022-10-28T11:00:48.255Z,21
2022-10-28T11:03:18.794Z,21
2022-10-28T11:05:55.082Z,32
2022-10-28T11:08:19.405Z,13
2022-10-28T11:10:49.659Z,11
2022-10-28T11:13:19.895Z,11
2022-10-28T11:15:50.138Z,14
2022-10-28T11:18:20.355Z,12
2022-10-28T11:20:50.592Z,12
2022-10-28T11:23:20.788Z,9
2022-10-28T11:25:51.029Z,7
2022-10-28T11:28:21.243Z,8
2022-10-28T11:30:51.605Z,8
2022-10-28T11:33:29.864Z,10
2022-10-28T11:35:52.258Z,11
2022-10-28T11:38:22.413Z,10
2022-10-28T11:40:52.708Z,10
2022-10-28T11:43:22.857Z,23
2022-10-28T11:45:53.425Z,13
2022-10-28T11:48:23.668Z,30
2022-10-28T11:50:54.036Z,32
2022-10-28T11:53:24.717Z,12
2022-10-28T11:55:54.944Z,14
2022-10-28T11:58:25.142Z,11
2022-10-28T12:00:55.388Z,8
2022-10-28T12:03:25.623Z,8
2022-10-28T12:05:56.300Z,9
2022-10-28T12:08:26.483Z,11
2022-10-28T12:10:56.698Z,15
2022-10-28T12:13:26.913Z,15
2022-10-28T12:15:57.145Z,16
2022-10-28T12:18:27.391Z,15
2022-10-28T12:20:57.633Z,10
2022-10-28T12:23:28.284Z,11
2022-10-28T12:25:58.539Z,11
2022-10-28T12:28:28.665Z,9
2022-10-28T12:30:58.870Z,9
2022-10-28T12:33:29.044Z,7
2022-10-28T12:35:59.257Z,10
2022-10-28T12:38:29.533Z,11
2022-10-28T12:40:59.629Z,8
2022-10-28T12:43:29.886Z,8
2022-10-28T12:45:59.993Z,9
2022-10-28T12:48:30.164Z,8
2022-10-28T12:51:00.355Z,9
2022-10-28T12:53:30.531Z,9
2022-10-28T12:56:00.798Z,8
2022-10-28T12:58:30.888Z,9
2022-10-28T13:01:01.770Z,10
2022-10-28T13:03:31.810Z,8
2022-10-28T13:06:02.086Z,11
2022-10-28T13:08:32.182Z,10
2022-10-28T13:11:02.442Z,9
2022-10-28T13:13:32.618Z,10
2022-10-28T13:16:02.703Z,9
2022-10-28T13:18:32.867Z,11
2022-10-28T13:21:03.155Z,9
2022-10-28T13:23:33.227Z,8
2022-10-28T13:26:03.419Z,8
2022-10-28T13:28:33.672Z,8
2022-10-28T13:31:03.780Z,10
2022-10-28T13:33:33.958Z,8
2022-10-28T13:36:04.142Z,10
2022-10-28T13:38:34.317Z,9
2022-10-28T13:41:04.499Z,9
2022-10-28T13:43:34.674Z,10
2022-10-28T13:46:04.871Z,9
2022-10-28T13:48:35.604Z,10
2022-10-28T13:51:05.789Z,9
2022-10-28T13:53:36.541Z,7
2022-10-28T13:56:07.287Z,9
2022-10-28T13:58:37.458Z,8
2022-10-28T14:01:07.729Z,8
2022-10-28T14:03:38.007Z,8
2022-10-28T14:06:08.597Z,10
2022-10-28T14:08:38.767Z,8
2022-10-28T14:11:08.911Z,9
2022-10-28T14:13:39.098Z,9
2022-10-28T14:16:13.246Z,8
2022-10-28T14:18:44.406Z,9
2022-10-28T14:21:11.315Z,9
2022-10-28T14:23:41.500Z,7
2022-10-28T14:26:12.183Z,12
2022-10-28T14:28:42.432Z,9
2022-10-28T14:31:12.706Z,9
2022-10-28T14:33:42.806Z,10
2022-10-28T14:36:12.983Z,10
2022-10-28T14:38:43.726Z,9
2022-10-28T14:41:13.934Z,10
2022-10-28T14:43:44.389Z,10
2022-10-28T14:46:14.611Z,9
2022-10-28T14:48:45.018Z,10
2022-10-28T14:51:15.242Z,10
2022-10-28T14:53:45.451Z,8
2022-10-28T14:56:15.730Z,8
2022-10-28T14:58:45.875Z,11
2022-10-28T15:01:16.823Z,8
2022-10-28T15:03:46.868Z,12
2022-10-28T15:06:17.090Z,10
2022-10-28T15:08:47.367Z,10
2022-10-28T15:11:17.547Z,7
2022-10-28T15:13:47.758Z,9
2022-10-28T15:16:18.566Z,10
2022-10-28T15:18:50.813Z,12
2022-10-28T15:38:52.301Z,15
2022-10-28T15:41:23.125Z,10
2022-10-28T15:43:53.915Z,13
2022-10-28T15:56:26.331Z,9
2022-10-28T15:58:56.557Z,9
2022-10-28T16:01:26.952Z,11
2022-10-28T16:03:57.036Z,9
2022-10-28T16:06:27.295Z,12
2022-10-28T16:08:57.536Z,8
2022-10-28T16:11:28.334Z,10
2022-10-28T16:13:58.545Z,11
2022-10-28T16:16:28.800Z,10
2022-10-28T16:18:59.040Z,11
2022-10-28T16:21:29.647Z,11
2022-10-28T16:23:59.841Z,11
2022-10-28T16:26:30.673Z,14
2022-10-28T16:29:01.482Z,11
2022-10-28T16:31:31.891Z,11
2022-10-28T16:34:02.037Z,12
2022-10-28T16:36:32.311Z,10
2022-10-28T16:39:02.528Z,11
2022-10-28T16:41:33.348Z,11
2022-10-28T16:46:39.020Z,14
2022-10-28T16:56:38.177Z,16
2022-10-28T16:59:06.980Z,11
2022-10-28T17:01:37.387Z,16
2022-10-28T17:04:07.180Z,12
2022-10-28T17:06:39.434Z,16
2022-10-28T17:09:08.716Z,13
2022-10-28T17:11:38.793Z,16
2022-10-28T17:14:09.399Z,16
2022-10-28T17:16:43.194Z,17
2022-10-28T17:19:10.532Z,12
2022-10-28T17:21:41.403Z,12
2022-10-28T17:24:11.399Z,36
2022-10-28T17:26:41.764Z,10
2022-10-28T17:29:12.358Z,25
2022-10-28T17:31:42.439Z,10
2022-10-28T17:34:12.594Z,18
2022-10-28T17:36:42.828Z,12
2022-10-28T17:39:17.796Z,10
2022-10-28T17:41:43.996Z,12
2022-10-28T17:44:14.525Z,17
2022-10-28T17:46:44.820Z,12
2022-10-28T17:49:15.107Z,9
2022-10-28T17:51:45.589Z,12
2022-10-28T17:54:15.913Z,10
2022-10-28T17:56:45.866Z,11
2022-10-28T17:59:16.221Z,11
2022-10-28T18:01:46.401Z,12
2022-10-28T18:04:16.481Z,13
2022-10-28T18:06:47.268Z,10
2022-10-28T18:09:18.097Z,10
2022-10-28T18:11:48.447Z,12
2022-10-28T18:14:18.663Z,14
2022-10-28T18:16:48.957Z,12
2022-10-28T18:19:19.841Z,11
2022-10-28T18:21:50.162Z,12
2022-10-28T18:24:23.431Z,10
2022-10-28T18:26:50.911Z,11
2022-10-28T18:29:21.440Z,12
2022-10-28T18:31:51.747Z,7
2022-10-28T18:34:22.069Z,12
2022-10-28T18:36:52.309Z,13
2022-10-28T18:39:22.618Z,11
2022-10-28T18:41:52.900Z,11
2022-10-28T18:44:23.266Z,10
2022-10-28T18:46:53.500Z,9
2022-10-28T18:49:23.780Z,10
2022-10-28T18:51:53.856Z,11
2022-10-28T18:54:24.130Z,11
2022-10-28T18:56:57.591Z,10
2022-10-28T18:59:25.281Z,10
2022-10-28T19:01:55.686Z,12
2022-10-28T19:04:26.511Z,11
2022-10-28T19:06:56.365Z,10
2022-10-28T19:09:26.599Z,11
2022-10-28T19:11:56.909Z,10
2022-10-28T19:14:26.965Z,11
2022-10-28T19:16:57.204Z,9
2022-10-28T19:19:27.563Z,9
2022-10-28T19:21:57.799Z,8
2022-10-28T19:24:28.159Z,9
2022-10-28T19:26:58.384Z,9
2022-10-28T19:29:28.780Z,9
2022-10-28T19:31:59.319Z,8
2022-10-28T19:34:30.267Z,17
2022-10-28T19:37:00.984Z,9
2022-10-28T19:39:31.307Z,10
2022-10-28T19:42:01.639Z,11
2022-10-28T19:44:32.020Z,9
2022-10-28T19:47:02.291Z,8
2022-10-28T19:49:37.191Z,10
2022-10-28T19:52:02.964Z,9
2022-10-28T19:54:33.707Z,9
2022-10-28T19:57:03.974Z,8
2022-10-28T19:59:34.261Z,8
2022-10-28T20:02:05.175Z,10
2022-10-28T20:04:35.593Z,9
2022-10-28T20:07:05.612Z,8
2022-10-28T20:09:36.152Z,8
2022-10-28T20:12:06.765Z,6
2022-10-28T20:14:37.084Z,8
2022-10-28T20:17:07.549Z,7
2022-10-28T20:19:37.791Z,5
2022-10-28T20:22:07.929Z,7
2022-10-28T20:24:38.232Z,7
2022-10-28T20:27:08.551Z,5
2022-10-28T20:29:38.862Z,5
2022-10-28T20:32:09.106Z,6
2022-10-28T20:34:39.401Z,5
2022-10-28T20:37:09.735Z,5
2022-10-28T20:39:40.100Z,5
2022-10-28T20:42:10.878Z,6
2022-10-28T20:44:41.133Z,4
2022-10-28T20:47:11.511Z,5
2022-10-28T20:49:41.839Z,4
2022-10-28T20:52:12.229Z,4
2022-10-28T20:54:42.357Z,3
2022-10-28T20:57:12.676Z,5
2022-10-28T20:59:42.978Z,5
2022-10-28T21:02:13.447Z,5
2022-10-28T21:04:43.616Z,4
2022-10-28T21:07:13.887Z,5
2022-10-28T21:09:44.168Z,5
2022-10-28T21:12:14.483Z,5
2022-10-28T21:14:44.818Z,5
2022-10-28T21:17:15.086Z,7
2022-10-28T21:19:45.480Z,4
2022-10-28T21:22:15.681Z,5
2022-10-28T21:24:45.963Z,5
2022-10-28T21:27:16.278Z,5
2022-10-28T21:29:46.731Z,6
2022-10-28T21:32:16.874Z,5
2022-10-28T21:34:47.180Z,4
2022-10-28T21:37:17.521Z,6
2022-10-28T21:39:47.837Z,6
2022-10-28T21:42:18.061Z,7
2022-10-28T21:44:48.454Z,5
2022-10-28T21:49:49.536Z,6
2022-10-28T21:52:19.817Z,4
2022-10-28T21:54:50.072Z,8
2022-10-28T21:57:20.464Z,6
2022-10-28T21:59:51.220Z,6
2022-10-28T22:02:21.708Z,6
2022-10-28T22:04:51.921Z,6
2022-10-28T22:07:22.126Z,7
2022-10-28T22:09:52.404Z,6
2022-10-28T22:12:22.712Z,6
2022-10-28T22:14:53.004Z,5
2022-10-28T22:17:23.315Z,7
2022-10-28T22:19:53.656Z,7
2022-10-28T22:22:23.921Z,6
2022-10-28T22:24:54.212Z,6
2022-10-28T22:27:25.092Z,7
2022-10-28T22:29:55.483Z,8
2022-10-28T22:32:25.852Z,9
2022-10-28T22:34:56.574Z,7
2022-10-28T22:37:26.952Z,5
2022-10-28T22:39:57.167Z,5
2022-10-28T22:42:27.495Z,7
2022-10-28T22:44:57.888Z,6
2022-10-28T22:47:28.096Z,6
2022-10-28T22:49:58.487Z,6
2022-10-28T22:52:28.711Z,5
2022-10-28T22:54:59.011Z,6
2022-10-28T22:57:29.339Z,5
2022-10-28T22:59:59.636Z,5
2022-10-28T23:02:30.337Z,7
2022-10-28T23:05:00.296Z,8
2022-10-28T23:07:30.612Z,7
2022-10-28T23:10:00.936Z,5
2022-10-28T23:12:31.282Z,7
2022-10-28T23:15:01.586Z,6
2022-10-28T23:17:32.478Z,8
2022-10-28T23:20:02.820Z,6
2022-10-28T23:22:33.140Z,7
2022-10-28T23:25:03.477Z,8
2022-10-28T23:27:33.836Z,8
2022-10-28T23:30:04.365Z,7
2022-10-28T23:32:35.027Z,12
2022-10-28T23:35:05.449Z,7
2022-10-28T23:37:35.803Z,7
2022-10-28T23:40:06.205Z,7
2022-10-28T23:42:36.472Z,6
2022-10-28T23:45:06.858Z,7
2022-10-28T23:47:37.190Z,8
2022-10-28T23:50:07.617Z,7
2022-10-28T23:52:37.903Z,6
2022-10-28T23:55:08.241Z,7
2022-10-28T23:57:38.607Z,7
